Terminal Aerodrome Forecast
Issued by NWS Cleveland, OH

Home | Current Version | Previous Version | Text Only | Print | Product List | Glossary Off
Versions: 1 2 3 4 5 6 7 8 9 10 11 12 13 14 15

147
FTUS41 KCLE 240207 AAA
TAFMFD
TAF AMD
KMFD 240207Z 2402/2424 01008KT 5SM BR BKN006 OVC012
     FM241500 03012KT P6SM OVC015
     FM242100 03008KT P6SM SCT025 BKN035=

USA.gov is the U.S. government's official web portal to all federal, state and local government web resources and services.